Terminal Aerodrome Forecast
Issued by NWS

Home | Current Version | Previous Version | Graphics & Text | Print | Product List | Glossary On
Versions: 1 2 3 4 5 6 7 8 9 10 11 12 13 14 15 16 17
000
FTUS43 KICT 222300
TAFSLN
TAF
KSLN 222322Z 2300/2324 15013KT P6SM SCT250
     FM231000 15015KT P6SM VCTS SCT080CB
     FM231500 17020G28KT P6SM SCT120
     FM231900 19026G35KT P6SM SCT120=

USA.gov is the U.S. government's official web portal to all federal, state and local government web resources and services.